Time;durP1;ratioP1;P1;durP2;ratioP2;P2;SDS_P1;SDS_P2;PMS_P1;PMS_P2;Temp;Humidity;BMP_temperature;BMP_pressure;BME280_temperature;BME280_humidity;BME280_pressure;Samples;Min_cycle;Max_cycle;Signal;HPM_P1;HPM_P2
2024/02/07 00:14:31;;;;;;;5.10;3.40;;;;;;;10.90;100.00;97911.71;682089;1263;139336;-84
2024/02/07 00:29:36;;;;;;;8.60;3.50;;;;;;;11.33;99.19;97878.85;682222;1260;139819;-83
2024/02/07 00:44:39;;;;;;;6.40;3.10;;;;;;;11.50;97.26;97861.52;681992;1263;141385;-82
2024/02/07 00:59:43;;;;;;;5.60;2.10;;;;;;;11.36;98.47;97850.55;682126;1264;138591;-82
2024/02/07 01:14:47;;;;;;;5.40;2.40;;;;;;;11.48;98.20;97854.52;682027;1265;138396;-82
2024/02/07 01:29:51;;;;;;;1.80;0.50;;;;;;;11.22;97.37;97931.88;682165;1262;138619;-83
2024/02/07 01:45:43;;;;;;;3.20;1.10;;;;;;;9.44;95.43;97993.84;682028;1260;140866;-83
2024/02/07 02:00:48;;;;;;;1.70;0.50;;;;;;;8.80;95.06;98008.25;682104;1262;138284;-82
2024/02/07 02:15:52;;;;;;;2.60;1.10;;;;;;;8.28;93.81;98009.92;682008;1264;138963;-81
2024/02/07 02:30:58;;;;;;;0.80;0.70;;;;;;;7.70;94.88;98024.05;682118;1264;138163;-84
2024/02/07 02:46:02;;;;;;;0.60;0.40;;;;;;;7.16;97.05;98032.65;682051;1260;139696;-83
2024/02/07 03:01:06;;;;;;;0.60;0.60;;;;;;;6.89;97.48;98039.66;682031;1264;139010;-84
2024/02/07 03:16:12;;;;;;;1.20;0.70;;;;;;;6.72;99.29;98030.78;681978;1262;138910;-84
2024/02/07 03:31:16;;;;;;;2.30;1.60;;;;;;;6.53;99.16;98020.64;682127;1265;138069;-81
2024/02/07 03:46:19;;;;;;;3.30;1.30;;;;;;;6.73;97.13;98021.61;682056;1264;139221;-82
2024/02/07 04:01:23;;;;;;;8.00;2.30;;;;;;;6.54;96.73;98003.99;682226;1264;138880;-82
2024/02/07 05:17:55;;;;;;;81.90;35.50;;;;;;;6.22;94.84;98014.14;682214;1265;139635;-81
2024/02/07 05:33:00;;;;;;;22.20;8.20;;;;;;;6.35;94.39;98027.17;681979;1266;139066;-80
2024/02/07 05:48:04;;;;;;;54.70;14.20;;;;;;;6.30;94.30;98035.52;681859;1266;139719;-81
2024/02/07 06:03:08;;;;;;;29.50;9.40;;;;;;;6.34;94.19;98047.25;682218;1274;138634;-82
2024/02/07 18:57:31;;;;;;;34.50;10.90;;;;;;;3.53;78.19;98762.72;657238;1297;545224;-81
2024/02/07 19:12:36;;;;;;;37.40;12.30;;;;;;;3.31;77.77;98782.31;676091;1272;140152;-80
2024/02/07 19:27:40;;;;;;;28.30;9.20;;;;;;;3.24;77.22;98795.02;676543;1266;138820;-81
2024/02/07 19:42:44;;;;;;;29.10;8.60;;;;;;;2.95;77.23;98812.33;677879;1270;139235;-81
2024/02/07 19:57:48;;;;;;;45.60;14.60;;;;;;;2.80;77.01;98816.67;674952;1267;138557;-81
2024/02/07 20:12:52;;;;;;;47.70;14.50;;;;;;;2.53;77.32;98829.97;676681;1269;139421;-80
2024/02/07 20:27:56;;;;;;;49.10;19.80;;;;;;;2.34;77.44;98852.45;677252;1272;139783;-80
2024/02/07 20:43:01;;;;;;;23.10;8.40;;;;;;;2.98;74.93;98865.52;680363;1273;139118;-80
2024/02/07 20:58:06;;;;;;;14.40;7.30;;;;;;;3.37;71.98;98881.42;678214;1273;139113;-81
2024/02/07 21:13:10;;;;;;;13.50;7.00;;;;;;;3.29;71.77;98887.75;676891;1261;138568;-80
2024/02/07 21:28:14;;;;;;;14.70;6.10;;;;;;;3.24;71.55;98897.48;679751;1264;138550;-80
2024/02/07 21:43:17;;;;;;;43.40;11.70;;;;;;;3.26;71.96;98911.99;681198;1259;139503;-80
2024/02/07 21:58:21;;;;;;;29.90;9.10;;;;;;;3.17;73.00;98923.56;680954;1273;139625;-79
2024/02/07 22:13:25;;;;;;;65.20;20.00;;;;;;;3.15;74.00;98935.02;679876;1265;138629;-78
2024/02/07 22:28:29;;;;;;;21.90;7.50;;;;;;;3.03;75.09;98941.95;679413;1261;140769;-80
2024/02/07 22:43:33;;;;;;;13.00;5.80;;;;;;;2.95;75.35;98946.00;677850;1259;138827;-79
2024/02/07 22:58:38;;;;;;;5.00;2.80;;;;;;;2.72;76.13;98958.85;679805;1263;139357;-81
2024/02/07 23:13:41;;;;;;;35.90;11.30;;;;;;;2.83;74.49;98962.88;677456;1265;139602;-80
2024/02/07 23:28:45;;;;;;;30.30;9.40;;;;;;;3.03;73.33;98975.27;677840;1265;139631;-79
2024/02/07 23:43:49;;;;;;;54.30;16.00;;;;;;;3.02;73.54;98990.02;677569;1265;139374;-80
2024/02/07 23:58:54;;;;;;;5.20;2.60;;;;;;;3.13;73.65;99000.11;677590;1275;139238;-80
